Главная страница
METAR-TAF:

METAR-TAF

Аэропорты :

Lutselk'e, Северо-Западные Территории, Канада

широта: 62-25N, долгота: 110-40W, высота над уровнем моря: 179 м

Текущие метеонаблюдения

Эта сводка был подготовлена 3 часа и 18 минут назад, в 01:00 UTC
Ветер 6 Узел от восточно-северо-восточный
Температура -27°C
Влажность 69%
Давление 1014 hPa
Видимость: 8.0 км
небольшая облачность на высоте 4000 фута
Отдельные облака на высоте 10000 фута
Рассеянная облачность на высоте 24000 фута
Ледяные иглы

METAR: CYLK 230100Z 06006KT 5SM IC FEW040 SCT100 BKN240 M27/M31 A2993 RMK SC1AC3CS2 -25.7/-33.9/TR/30.8 SNW CVR/MUCH LOOSE LAST STFD OBS/NEXT 231500Z SLP167

Время: 21:18 (04:18 UTC)

Прогноз

Эта сводка был подготовлена 9 часа и 40 минут назад, в 18:38 UTC
Прогноз действительный с 22-го 19 UTC до 23-го 01 UTC
Ветер 5 Узел от западный-юго-западный
Видимость: 10 км
небольшая облачность на высоте 20000 фута

TAF: CYLK 221838Z 2219/2301 25005KT P6SM FEW200 RMK NXT FCST WILL BE ISSUED AT 231645Z

Метеонаблюдения и прогнозы для более 4000 аэропортов (сводки METAR и TAF).

Имеющиеся станции представлены на карте желтыми и красными точками.

Чтобы увидеть название станции, наведите на нее мышь.

Затем щелкните, чтобы увидеть метеонаблюдения и метеопрогнозы.

Управление картой: чтобы увеличить масштаб, щелкните зеленые кнопки с черным крестиком; чтобы уменьшить масштаб, щелкните зеленую кнопку с тире; для просмотра соседних карт щелкайте зеленые стрелки.


METAR-TAF: